Time;durP1;ratioP1;P1;durP2;ratioP2;P2;SDS_P1;SDS_P2;PMS_P1;PMS_P2;Temp;Humidity;BMP_temperature;BMP_pressure;BME280_temperature;BME280_humidity;BME280_pressure;Samples;Min_cycle;Max_cycle;Signal;HPM_P1;HPM_P2
2023/08/18 00:00:08;;;;;;;3.95;2.72;;;;;;;24.10;59.66;98239.41;5009084;28;20379;-58
2023/08/18 00:02:34;;;;;;;3.80;2.80;;;;;;;24.13;59.52;98233.75;5008753;28;20225;-57
2023/08/18 00:04:59;;;;;;;3.90;2.90;;;;;;;24.17;59.49;98238.66;5008829;28;20217;-58
2023/08/18 00:07:25;;;;;;;3.78;3.00;;;;;;;24.10;59.19;98215.63;5008676;28;20273;-57
2023/08/18 00:09:51;;;;;;;5.82;3.50;;;;;;;24.20;59.22;98216.09;5008615;28;20186;-58
2023/08/18 00:12:16;;;;;;;4.25;2.75;;;;;;;24.08;59.01;98204.44;4988636;28;20189;-58
2023/08/18 00:14:42;;;;;;;3.28;2.97;;;;;;;24.23;58.92;98227.31;4974705;28;20697;-58
2023/08/18 00:17:07;;;;;;;3.67;2.78;;;;;;;24.16;59.35;98227.25;4969591;28;20270;-58
2023/08/18 00:19:33;;;;;;;4.57;3.20;;;;;;;24.13;59.61;98216.25;4969713;28;20193;-58
2023/08/18 00:21:58;;;;;;;3.05;2.75;;;;;;;24.12;59.47;98226.00;4972547;28;20826;-58
2023/08/18 00:24:24;;;;;;;4.47;3.03;;;;;;;24.13;59.20;98222.34;5008533;28;20310;-57
2023/08/18 00:26:50;;;;;;;3.35;3.05;;;;;;;23.93;59.42;98184.41;5008612;28;20179;-58
2023/08/18 00:29:18;;;;;;;4.18;2.90;;;;;;;23.92;59.80;98191.50;5008492;28;20233;-58
2023/08/18 00:31:43;;;;;;;7.15;3.00;;;;;;;23.83;60.88;98205.03;5008470;28;20183;-58
2023/08/18 00:34:09;;;;;;;3.03;2.83;;;;;;;23.81;60.54;98207.06;5008457;28;20221;-58
2023/08/18 00:36:34;;;;;;;5.53;3.42;;;;;;;23.83;60.50;98205.03;4988666;28;20183;-57
2023/08/18 00:39:01;;;;;;;3.95;2.92;;;;;;;23.60;61.42;98188.63;4988526;28;20225;-57
2023/08/18 00:41:26;;;;;;;6.38;3.20;;;;;;;23.55;61.27;98190.22;4988801;28;20598;-57
2023/08/18 00:43:52;;;;;;;3.72;2.45;;;;;;;23.76;60.83;98220.03;4988740;28;20195;-57
2023/08/18 00:46:18;;;;;;;4.43;2.88;;;;;;;23.64;60.22;98203.09;4988785;28;20188;-57
2023/08/18 00:48:44;;;;;;;3.42;3.00;;;;;;;23.67;60.07;98203.53;4992811;28;20234;-58
2023/08/18 00:51:11;;;;;;;5.72;3.33;;;;;;;23.61;59.85;98206.09;4988830;28;20238;-58
2023/08/18 00:53:40;;;;;;;3.65;2.63;;;;;;;23.78;59.31;98216.22;4988559;28;20302;-57
2023/08/18 00:56:07;;;;;;;9.27;3.45;;;;;;;23.88;59.45;98230.94;4988622;28;20637;-58
2023/08/18 00:58:34;;;;;;;3.25;2.95;;;;;;;23.71;59.77;98197.88;4988630;28;20184;-57
2023/08/18 01:01:01;;;;;;;4.75;2.85;;;;;;;23.67;59.81;98203.53;4988601;28;20198;-58
2023/08/18 01:03:26;;;;;;;3.85;3.50;;;;;;;23.81;59.88;98218.44;4988513;28;20650;-58
2023/08/18 01:05:52;;;;;;;3.25;2.70;;;;;;;23.63;59.96;98202.25;4988583;28;20223;-59
2023/08/18 01:08:17;;;;;;;5.55;3.53;;;;;;;23.78;59.86;98216.22;4972898;28;20298;-58
2023/08/18 01:11:06;;;;;;;3.38;2.92;;;;;;;23.65;60.13;98209.19;4984845;28;20196;-59
2023/08/18 01:13:44;;;;;;;3.22;2.92;;;;;;;23.67;59.96;98220.38;4988672;28;20215;-58
2023/08/18 01:16:15;;;;;;;4.68;2.50;;;;;;;23.47;60.75;98204.38;4988608;28;20262;-58
2023/08/18 01:18:41;;;;;;;6.40;3.17;;;;;;;23.29;61.64;98213.75;4988607;28;20311;-59
2023/08/18 01:21:10;;;;;;;5.72;3.00;;;;;;;23.41;61.89;98233.34;4991657;28;20216;-59
2023/08/18 01:23:40;;;;;;;4.70;3.17;;;;;;;23.26;62.29;98206.22;5032041;28;20265;-58
2023/08/18 01:26:05;;;;;;;5.20;3.22;;;;;;;23.34;62.15;98225.38;5033887;28;20178;-59
2023/08/18 01:28:33;;;;;;;6.50;3.17;;;;;;;23.36;61.83;98235.78;5033808;28;20718;-58
2023/08/18 01:31:03;;;;;;;3.40;2.97;;;;;;;23.36;61.98;98226.00;5033738;28;20232;-59
2023/08/18 01:33:37;;;;;;;3.83;2.90;;;;;;;23.35;62.21;98234.94;5033744;28;20214;-58
2023/08/18 01:36:25;;;;;;;3.60;3.30;;;;;;;23.38;62.31;98237.22;5033756;28;20563;-59
2023/08/18 01:38:52;;;;;;;7.55;2.92;;;;;;;23.21;61.99;98209.44;5033387;28;20239;-59
2023/08/18 01:41:23;;;;;;;4.40;3.22;;;;;;;23.25;62.20;98220.44;5033870;28;20540;-58
2023/08/18 01:43:49;;;;;;;8.15;3.28;;;;;;;23.18;62.43;98203.69;5033581;28;20181;-58
2023/08/18 01:46:14;;;;;;;3.10;2.90;;;;;;;23.27;62.12;98208.69;5033499;28;20579;-58
2023/08/18 01:48:40;;;;;;;3.25;3.00;;;;;;;23.38;62.02;98221.38;5033723;28;20618;-58
2023/08/18 01:51:05;;;;;;;3.70;2.78;;;;;;;23.40;62.02;98223.81;5033395;28;20170;-58
2023/08/18 01:53:31;;;;;;;3.40;3.20;;;;;;;23.37;62.20;98225.00;5033280;28;20307;-58
2023/08/18 01:56:00;;;;;;;3.97;3.63;;;;;;;23.07;62.80;98194.44;5033258;28;20170;-58
2023/08/18 01:58:25;;;;;;;3.65;3.35;;;;;;;23.21;62.74;98209.44;5033208;28;20189;-58
2023/08/18 02:00:57;;;;;;;3.42;3.13;;;;;;;23.08;62.55;98193.41;5033477;28;20178;-58
2023/08/18 02:03:24;;;;;;;5.90;3.40;;;;;;;23.15;62.51;98219.88;5033178;28;20761;-58
2023/08/18 02:05:56;;;;;;;4.05;3.08;;;;;;;22.98;62.89;98184.19;5033179;28;20178;-58
2023/08/18 02:08:22;;;;;;;5.90;3.40;;;;;;;23.13;62.95;98220.06;5033017;28;20239;-58
2023/08/18 02:10:47;;;;;;;3.08;2.85;;;;;;;23.02;63.33;98219.75;5033009;28;20177;-58
2023/08/18 02:13:14;;;;;;;6.55;3.33;;;;;;;22.84;63.51;98212.25;5032955;28;20707;-58
2023/08/18 02:15:39;;;;;;;4.65;3.13;;;;;;;22.76;64.04;98198.34;5032878;28;20202;-58
2023/08/18 02:18:05;;;;;;;3.25;2.95;;;;;;;22.67;64.37;98197.66;5032863;28;20652;-58
2023/08/18 02:20:30;;;;;;;4.75;3.05;;;;;;;22.66;64.45;98203.94;5032796;28;20178;-58
2023/08/18 02:22:56;;;;;;;3.20;2.97;;;;;;;22.78;64.72;98213.00;5032740;28;20178;-58
2023/08/18 02:25:22;;;;;;;3.72;3.05;;;;;;;22.66;64.87;98187.31;5033024;28;20261;-58
2023/08/18 02:27:48;;;;;;;4.88;3.40;;;;;;;22.64;65.33;98189.28;5032755;28;20286;-58
2023/08/18 02:30:13;;;;;;;3.17;2.97;;;;;;;22.71;65.80;98219.19;5032676;28;20205;-58
2023/08/18 02:32:39;;;;;;;5.53;3.47;;;;;;;22.62;65.90;98207.94;5029921;28;20181;-58
2023/08/18 02:35:05;;;;;;;3.30;2.95;;;;;;;22.73;65.35;98210.09;5029899;28;20213;-58
2023/08/18 02:37:30;;;;;;;3.60;3.30;;;;;;;22.64;64.97;98194.56;5029995;28;20186;-58
2023/08/18 02:39:55;;;;;;;9.50;3.78;;;;;;;22.58;65.62;98200.59;5030064;28;20182;-58
2023/08/18 02:42:21;;;;;;;4.70;3.17;;;;;;;22.58;66.01;98204.06;5030078;28;20248;-58
2023/08/18 02:44:46;;;;;;;4.10;3.60;;;;;;;22.45;66.19;98200.44;5030003;28;20202;-58
2023/08/18 02:47:13;;;;;;;3.53;3.20;;;;;;;22.58;66.11;98219.03;5029938;28;20667;-58
2023/08/18 02:49:38;;;;;;;3.78;3.47;;;;;;;22.49;66.32;98207.78;5029826;28;20182;-58
2023/08/18 02:52:04;;;;;;;3.42;3.20;;;;;;;22.56;66.00;98215.78;5029882;28;20193;-58
2023/08/18 02:54:29;;;;;;;3.38;3.03;;;;;;;22.52;66.42;98206.59;5029777;28;20308;-58
2023/08/18 02:56:55;;;;;;;3.97;3.67;;;;;;;22.30;66.31;98175.84;5029983;28;20280;-58
2023/08/18 02:59:20;;;;;;;4.20;3.55;;;;;;;22.43;66.99;98212.97;5029596;28;20178;-58
2023/08/18 03:01:45;;;;;;;4.00;3.58;;;;;;;22.35;67.11;98199.84;5029649;28;20204;-58
2023/08/18 03:04:14;;;;;;;3.80;3.50;;;;;;;22.08;67.90;98185.53;5029535;28;20664;-58
2023/08/18 03:06:39;;;;;;;4.43;3.33;;;;;;;22.30;67.34;98208.31;5029233;28;20193;-58
2023/08/18 03:09:04;;;;;;;6.93;3.25;;;;;;;22.28;67.34;98214.78;5029696;28;20604;-58
2023/08/18 03:11:30;;;;;;;4.25;3.40;;;;;;;22.24;67.28;98210.88;5032065;28;20170;-58
2023/08/18 03:13:56;;;;;;;3.50;3.20;;;;;;;22.14;66.76;98181.34;5031886;28;20224;-58
2023/08/18 03:16:21;;;;;;;4.00;3.15;;;;;;;22.31;66.43;98198.63;5031728;28;20230;-58
2023/08/18 03:18:47;;;;;;;3.50;3.30;;;;;;;22.11;67.00;98176.44;5031804;28;20178;-58
2023/08/18 03:21:12;;;;;;;3.10;2.90;;;;;;;22.03;67.59;98187.06;5031692;28;20657;-58
2023/08/18 03:23:38;;;;;;;3.83;3.53;;;;;;;22.23;67.28;98212.69;5031696;28;20186;-58
2023/08/18 03:26:05;;;;;;;4.43;3.40;;;;;;;22.01;67.58;98175.88;5031538;28;20282;-58
2023/08/18 03:28:32;;;;;;;4.07;3.33;;;;;;;22.10;67.98;98193.25;5031515;28;20192;-58
2023/08/18 03:31:02;;;;;;;3.70;3.40;;;;;;;22.14;67.95;98210.34;5031511;28;20177;-58
2023/08/18 03:33:28;;;;;;;4.25;3.30;;;;;;;21.90;68.45;98171.88;5031483;28;20639;-59
2023/08/18 03:35:54;;;;;;;3.95;3.55;;;;;;;21.88;68.89;98171.25;5031387;28;20213;-58
2023/08/18 03:38:21;;;;;;;3.70;3.35;;;;;;;22.04;69.07;98212.44;5031377;28;20182;-58
2023/08/18 03:40:47;;;;;;;3.88;2.97;;;;;;;21.99;68.61;98191.06;5031355;28;20174;-58
2023/08/18 03:43:13;;;;;;;6.03;3.50;;;;;;;22.04;68.13;98194.78;5031625;28;20213;-58
2023/08/18 03:45:38;;;;;;;6.22;3.50;;;;;;;22.21;68.27;98225.22;5030872;28;20297;-58
2023/08/18 03:48:04;;;;;;;4.88;3.78;;;;;;;22.31;67.28;98235.53;5028573;28;20181;-58
2023/08/18 03:50:29;;;;;;;4.30;3.10;;;;;;;22.21;67.85;98230.50;5028726;28;20284;-58
2023/08/18 03:52:55;;;;;;;3.72;3.38;;;;;;;22.20;68.04;98239.41;5028622;28;20695;-57
2023/08/18 03:55:21;;;;;;;3.67;3.38;;;;;;;22.05;67.79;98198.25;5028616;28;20276;-57
2023/08/18 03:57:46;;;;;;;3.13;2.83;;;;;;;22.27;67.61;98242.16;5028661;28;20244;-57
2023/08/18 04:00:12;;;;;;;4.80;3.05;;;;;;;22.18;67.95;98230.03;5028631;28;20209;-58
2023/08/18 04:02:38;;;;;;;4.05;3.33;;;;;;;21.91;68.70;98201.72;5028529;28;20190;-57
2023/08/18 04:05:03;;;;;;;3.83;3.15;;;;;;;21.94;68.97;98222.41;5028475;28;20251;-57
2023/08/18 04:07:30;;;;;;;5.00;3.47;;;;;;;22.02;68.76;98230.25;5028224;28;20214;-57
2023/08/18 04:09:55;;;;;;;4.10;3.00;;;;;;;21.90;68.42;98194.78;5028410;28;20209;-58
2023/08/18 04:12:21;;;;;;;4.88;3.42;;;;;;;21.78;69.22;98199.69;5028548;28;20706;-56
2023/08/18 04:14:46;;;;;;;5.40;3.45;;;;;;;21.93;68.82;98215.50;5028329;28;20225;-57
2023/08/18 04:17:12;;;;;;;3.75;3.45;;;;;;;21.87;68.90;98197.78;5028775;28;20178;-57
2023/08/18 04:19:37;;;;;;;5.65;3.58;;;;;;;21.85;68.65;98202.44;5029983;28;20625;-58
2023/08/18 04:22:03;;;;;;;3.95;3.63;;;;;;;22.18;68.25;98235.31;5030823;28;20529;-57
2023/08/18 04:24:28;;;;;;;3.22;2.95;;;;;;;22.10;68.00;98204.63;5030742;28;20185;-58
2023/08/18 04:26:59;;;;;;;6.15;3.65;;;;;;;22.01;68.12;98192.53;5030764;28;20200;-57
2023/08/18 04:29:28;;;;;;;5.65;3.72;;;;;;;22.27;67.76;98228.97;5030771;28;20311;-57
2023/08/18 04:31:54;;;;;;;4.57;3.13;;;;;;;22.13;68.06;98219.22;5030756;28;20663;-57
2023/08/18 04:34:19;;;;;;;6.88;3.10;;;;;;;22.07;67.90;98202.34;5030599;28;20201;-58
2023/08/18 04:36:44;;;;;;;7.45;3.13;;;;;;;22.18;67.55;98224.78;5030664;28;20290;-58
2023/08/18 04:39:11;;;;;;;4.07;3.58;;;;;;;22.12;67.04;98204.41;5030640;28;20181;-58
2023/08/18 04:41:36;;;;;;;3.40;3.17;;;;;;;22.26;66.82;98232.59;5030734;28;20193;-57
2023/08/18 04:44:02;;;;;;;4.30;3.90;;;;;;;22.20;66.83;98222.78;5030567;28;20226;-58
2023/08/18 04:46:28;;;;;;;3.75;3.45;;;;;;;22.24;66.67;98216.13;5030306;28;20200;-58
2023/08/18 04:48:54;;;;;;;5.45;3.22;;;;;;;22.22;67.01;98212.88;5030312;28;20181;-58
2023/08/18 04:51:19;;;;;;;3.53;3.28;;;;;;;22.52;66.11;98240.88;5030476;28;20620;-58
2023/08/18 04:53:45;;;;;;;3.67;3.38;;;;;;;22.48;65.93;98242.25;5030252;28;20205;-58
2023/08/18 04:56:10;;;;;;;4.60;3.70;;;;;;;22.46;65.97;98231.91;5030531;28;20253;-58
2023/08/18 04:58:36;;;;;;;4.05;3.72;;;;;;;22.65;65.79;98238.41;5032390;28;20182;-58
2023/08/18 05:01:02;;;;;;;3.97;3.50;;;;;;;22.77;64.77;98229.00;5034618;28;20181;-58
2023/08/18 05:03:28;;;;;;;7.28;3.58;;;;;;;22.78;64.22;98217.47;5034245;28;20671;-58
2023/08/18 05:05:59;;;;;;;4.75;3.58;;;;;;;22.81;64.02;98207.38;5034228;28;20241;-58
2023/08/18 05:08:28;;;;;;;4.13;3.05;;;;;;;23.11;63.71;98226.53;5034224;28;20193;-58
2023/08/18 05:10:56;;;;;;;4.45;3.17;;;;;;;23.10;63.50;98207.25;5034183;28;20641;-58
2023/08/18 05:13:22;;;;;;;6.63;3.53;;;;;;;23.29;62.73;98234.88;5034129;28;20189;-58
2023/08/18 05:15:48;;;;;;;3.67;3.30;;;;;;;23.32;62.56;98227.38;5034125;28;20186;-58
2023/08/18 05:18:14;;;;;;;5.47;3.80;;;;;;;23.42;62.45;98248.22;5034114;28;20209;-58
2023/08/18 05:20:39;;;;;;;4.55;3.40;;;;;;;23.47;62.59;98245.81;5034157;28;20281;-58
2023/08/18 05:23:05;;;;;;;4.78;3.58;;;;;;;23.34;62.62;98219.28;5034475;28;20665;-58
2023/08/18 05:25:31;;;;;;;4.40;3.42;;;;;;;23.48;61.88;98223.69;5034362;28;20707;-58
2023/08/18 05:27:57;;;;;;;9.02;3.85;;;;;;;23.52;61.64;98211.72;5034401;28;20671;-58
2023/08/18 05:30:22;;;;;;;3.60;3.30;;;;;;;23.83;60.86;98240.22;5034288;28;20174;-58
2023/08/18 05:32:48;;;;;;;3.75;3.42;;;;;;;23.92;60.38;98233.81;5034282;28;20710;-58
2023/08/18 05:35:13;;;;;;;6.38;3.35;;;;;;;23.95;60.31;98223.88;5034142;28;20639;-58
2023/08/18 05:37:38;;;;;;;5.47;3.72;;;;;;;23.98;59.70;98228.75;5034155;28;20174;-58
2023/08/18 05:40:05;;;;;;;4.03;3.35;;;;;;;24.23;59.39;98247.44;5034062;28;20177;-58
2023/08/18 05:42:30;;;;;;;4.57;3.67;;;;;;;24.26;59.62;98248.91;5034207;28;20173;-57
2023/08/18 05:44:56;;;;;;;7.00;3.83;;;;;;;24.27;59.14;98224.06;5033971;28;20264;-58
2023/08/18 05:47:21;;;;;;;5.03;3.42;;;;;;;24.38;58.62;98239.41;5034089;28;20178;-58
2023/08/18 05:49:47;;;;;;;4.68;3.25;;;;;;;24.20;58.98;98220.59;5033885;28;20185;-58
2023/08/18 05:52:12;;;;;;;7.68;3.53;;;;;;;24.25;59.62;98242.78;5034139;28;20170;-58
2023/08/18 05:54:37;;;;;;;4.40;3.42;;;;;;;24.35;58.55;98232.66;5033829;28;20558;-58
2023/08/18 05:57:03;;;;;;;5.15;3.58;;;;;;;24.39;58.54;98236.53;5033866;28;20176;-58
2023/08/18 05:59:31;;;;;;;3.80;3.53;;;;;;;24.44;58.75;98234.13;5033803;28;20546;-58
2023/08/18 06:01:56;;;;;;;3.90;3.30;;;;;;;24.43;58.19;98213.97;5033400;28;20686;-58
2023/08/18 06:04:22;;;;;;;3.47;3.20;;;;;;;24.68;57.90;98244.22;5033401;28;20265;-58
2023/08/18 06:06:47;;;;;;;3.92;3.03;;;;;;;24.67;57.97;98233.88;5033292;28;20185;-58
2023/08/18 06:09:13;;;;;;;4.18;3.65;;;;;;;24.64;57.69;98211.25;5032982;28;20182;-58
2023/08/18 06:11:38;;;;;;;3.83;3.45;;;;;;;24.85;57.20;98236.78;5033500;28;20256;-58
2023/08/18 06:14:03;;;;;;;3.88;3.10;;;;;;;24.94;57.09;98220.50;5033383;28;20206;-58
2023/08/18 06:16:29;;;;;;;3.47;3.17;;;;;;;25.14;56.72;98244.41;5033153;28;20193;-58
2023/08/18 06:18:54;;;;;;;4.40;3.35;;;;;;;25.23;56.45;98251.13;5033031;28;20206;-58
2023/08/18 06:21:20;;;;;;;5.80;3.58;;;;;;;25.33;56.17;98244.47;5033523;28;20174;-58
2023/08/18 06:23:45;;;;;;;3.90;3.67;;;;;;;25.31;55.72;98235.09;5033498;28;20227;-58
2023/08/18 06:26:11;;;;;;;3.35;2.95;;;;;;;25.27;55.76;98208.19;5033204;28;20564;-58
2023/08/18 06:28:36;;;;;;;6.32;3.03;;;;;;;25.50;55.06;98234.28;5033252;28;20284;-58
2023/08/18 06:31:03;;;;;;;3.40;3.20;;;;;;;25.63;54.62;98229.81;5033102;28;20186;-58
2023/08/18 06:33:29;;;;;;;5.43;3.40;;;;;;;25.70;54.56;98222.66;5032958;28;20182;-58
2023/08/18 06:35:54;;;;;;;8.88;3.38;;;;;;;25.86;53.98;98230.22;5033127;28;20188;-58
2023/08/18 06:38:19;;;;;;;5.95;3.40;;;;;;;25.95;53.78;98233.50;5032732;28;20260;-58
2023/08/18 06:40:45;;;;;;;3.42;3.13;;;;;;;26.17;53.38;98254.25;5032626;28;20228;-58
2023/08/18 06:43:10;;;;;;;5.68;2.95;;;;;;;26.21;52.60;98252.84;5032978;28;20192;-59
2023/08/18 06:45:36;;;;;;;6.95;3.60;;;;;;;26.26;52.71;98266.28;5032884;28;20514;-59
2023/08/18 06:48:01;;;;;;;6.10;3.25;;;;;;;26.25;53.06;98266.50;5032841;28;20178;-58
2023/08/18 06:50:27;;;;;;;7.22;3.20;;;;;;;26.12;53.03;98251.41;5032500;28;20605;-58
2023/08/18 06:52:52;;;;;;;5.35;3.42;;;;;;;26.08;53.95;98250.22;5032634;28;20178;-58
2023/08/18 06:55:17;;;;;;;5.03;3.40;;;;;;;26.18;53.69;98232.00;5032435;28;20353;-58
2023/08/18 06:57:43;;;;;;;7.50;3.83;;;;;;;26.31;53.80;98229.31;5032354;28;20178;-58
2023/08/18 07:00:09;;;;;;;5.07;3.90;;;;;;;26.56;54.13;98259.50;5032482;28;20663;-58
2023/08/18 07:02:35;;;;;;;13.68;4.50;;;;;;;26.81;53.22;98272.88;5032460;28;20178;-57
2023/08/18 07:05:00;;;;;;;10.57;4.00;;;;;;;26.74;53.14;98235.75;5032681;28;20185;-58
2023/08/18 07:07:26;;;;;;;10.85;4.30;;;;;;;26.99;52.95;98255.22;5032571;28;20194;-58
2023/08/18 07:09:51;;;;;;;9.35;4.43;;;;;;;27.12;52.89;98241.88;5032780;28;20174;-58
2023/08/18 07:12:18;;;;;;;10.60;4.70;;;;;;;27.38;52.60;98264.84;5032523;28;20184;-58
2023/08/18 07:14:43;;;;;;;8.85;4.22;;;;;;;27.33;52.31;98228.28;5032343;28;20194;-58
2023/08/18 07:17:10;;;;;;;7.35;4.65;;;;;;;27.57;51.59;98242.66;5032371;28;20198;-58
2023/08/18 07:19:35;;;;;;;11.95;4.65;;;;;;;27.62;51.39;98235.63;5032429;28;20668;-58
2023/08/18 07:22:00;;;;;;;9.10;4.10;;;;;;;27.93;51.13;98259.53;5031563;28;20228;-58
2023/08/18 07:24:26;;;;;;;12.20;4.50;;;;;;;28.02;50.92;98263.56;5032316;28;20252;-58
2023/08/18 07:26:53;;;;;;;6.93;4.35;;;;;;;28.08;50.30;98252.03;5032210;28;20581;-59
2023/08/18 07:29:18;;;;;;;8.68;4.10;;;;;;;28.11;50.68;98246.28;5032115;28;20648;-58
2023/08/18 07:31:44;;;;;;;6.13;4.15;;;;;;;28.24;50.18;98245.34;5032413;28;20269;-58
2023/08/18 07:34:10;;;;;;;9.43;4.60;;;;;;;28.21;50.25;98235.16;5031981;28;20691;-58
2023/08/18 07:36:35;;;;;;;7.70;4.30;;;;;;;28.34;50.09;98248.31;5032057;28;20223;-58
2023/08/18 07:39:03;;;;;;;6.75;3.90;;;;;;;28.43;49.98;98244.34;5032060;28;20560;-58
2023/08/18 07:41:28;;;;;;;6.25;4.15;;;;;;;28.42;50.02;98232.88;5032053;28;20224;-59
2023/08/18 07:43:54;;;;;;;4.43;3.97;;;;;;;28.48;49.71;98233.84;5031983;28;20589;-58
2023/08/18 07:46:20;;;;;;;8.77;4.03;;;;;;;28.68;49.58;98253.88;5031935;28;20273;-59
2023/08/18 07:48:46;;;;;;;8.55;4.40;;;;;;;28.84;49.01;98265.75;5031957;28;20178;-58
2023/08/18 07:51:11;;;;;;;6.07;4.10;;;;;;;28.88;49.33;98261.63;5031781;28;20170;-58
2023/08/18 07:53:37;;;;;;;10.23;4.07;;;;;;;28.94;49.24;98271.38;5031842;28;20267;-58
2023/08/18 07:56:03;;;;;;;7.35;3.75;;;;;;;28.79;49.21;98237.13;5031738;28;20557;-58
2023/08/18 07:58:28;;;;;;;11.38;4.50;;;;;;;28.94;49.34;98263.41;5031599;28;20182;-58
2023/08/18 08:00:56;;;;;;;10.50;3.88;;;;;;;29.06;48.86;98259.78;5031526;28;20178;-58
2023/08/18 08:03:22;;;;;;;6.30;3.95;;;;;;;29.14;48.79;98254.13;5031458;28;20950;-58
2023/08/18 08:05:48;;;;;;;8.32;4.47;;;;;;;29.14;48.40;98248.00;5031647;28;20958;-58
2023/08/18 08:08:13;;;;;;;9.48;4.38;;;;;;;29.30;48.26;98264.16;5031654;28;20217;-58
2023/08/18 08:10:39;;;;;;;7.70;3.97;;;;;;;29.22;48.49;98253.81;5031608;28;20231;-59
2023/08/18 08:13:04;;;;;;;6.05;4.00;;;;;;;29.31;48.83;98254.28;5031790;28;20177;-59
2023/08/18 08:15:30;;;;;;;5.60;4.22;;;;;;;29.43;48.53;98266.63;5031433;28;20555;-58
2023/08/18 08:17:56;;;;;;;9.82;4.30;;;;;;;29.44;48.45;98254.13;5031526;28;20173;-58
2023/08/18 08:20:21;;;;;;;8.55;4.47;;;;;;;29.42;47.92;98240.19;5031520;28;20235;-58
2023/08/18 08:22:50;;;;;;;9.60;4.43;;;;;;;29.55;47.97;98256.84;5031445;28;20546;-58
2023/08/18 08:25:16;;;;;;;8.02;4.18;;;;;;;29.50;47.39;98261.22;5031352;28;20558;-58
2023/08/18 08:27:42;;;;;;;7.63;4.05;;;;;;;29.53;47.93;98260.78;5031363;28;20174;-58
2023/08/18 08:30:11;;;;;;;11.10;3.72;;;;;;;29.44;48.41;98238.91;5031304;28;20204;-59
2023/08/18 08:32:36;;;;;;;8.85;4.10;;;;;;;29.38;47.95;98241.69;5033269;28;20184;-58
2023/08/18 08:35:02;;;;;;;7.57;4.15;;;;;;;29.33;49.06;98226.38;5035409;28;20295;-58
2023/08/18 08:37:28;;;;;;;6.05;4.20;;;;;;;29.49;48.46;98225.72;5035193;28;20192;-58
2023/08/18 08:39:53;;;;;;;10.35;4.55;;;;;;;29.75;48.21;98262.69;5035443;28;20177;-58
2023/08/18 08:42:19;;;;;;;10.52;4.22;;;;;;;29.49;48.13;98219.59;5035075;28;20224;-58
2023/08/18 08:44:44;;;;;;;7.68;4.50;;;;;;;29.72;47.38;98254.31;5034938;28;20228;-58
2023/08/18 08:47:10;;;;;;;8.43;4.10;;;;;;;29.72;47.79;98246.31;5035112;28;20178;-58
2023/08/18 08:49:38;;;;;;;9.32;4.30;;;;;;;29.67;48.53;98216.84;5035141;28;20218;-59
2023/08/18 08:52:09;;;;;;;4.65;4.15;;;;;;;29.93;47.49;98238.56;5035267;28;20235;-59
2023/08/18 08:54:39;;;;;;;5.20;4.40;;;;;;;29.88;47.14;98217.09;5034875;28;20304;-58
2023/08/18 08:57:09;;;;;;;6.75;4.00;;;;;;;30.01;47.33;98227.53;5034928;28;20181;-58
2023/08/18 08:59:35;;;;;;;6.57;4.60;;;;;;;29.97;47.00;98206.91;5034907;28;20182;-58
2023/08/18 09:02:02;;;;;;;8.52;4.47;;;;;;;30.14;46.98;98237.22;5035103;28;20177;-58
2023/08/18 09:04:28;;;;;;;4.90;4.25;;;;;;;30.17;47.19;98240.22;5034631;28;20178;-58
2023/08/18 09:06:54;;;;;;;5.10;4.63;;;;;;;29.99;46.94;98205.63;5034779;28;20197;-58
2023/08/18 09:09:20;;;;;;;6.85;4.50;;;;;;;30.09;46.62;98211.19;5034801;28;20613;-58
2023/08/18 09:11:46;;;;;;;7.43;3.70;;;;;;;30.10;44.94;98207.50;5034865;28;20174;-58
2023/08/18 09:14:16;;;;;;;4.97;4.30;;;;;;;30.34;45.51;98237.63;5034549;28;20205;-58
2023/08/18 09:16:44;;;;;;;8.55;4.18;;;;;;;30.08;45.13;98206.06;5034593;28;20606;-58
2023/08/18 09:19:15;;;;;;;7.28;3.63;;;;;;;30.26;45.07;98241.47;5034191;28;20636;-58
2023/08/18 09:21:41;;;;;;;9.73;4.35;;;;;;;30.18;45.15;98228.50;5034385;28;20177;-58
2023/08/18 09:24:08;;;;;;;6.20;3.92;;;;;;;30.03;44.73;98208.63;5034200;28;20188;-58
2023/08/18 09:26:34;;;;;;;6.07;4.43;;;;;;;30.20;44.98;98234.41;5034407;28;20225;-58
2023/08/18 09:28:59;;;;;;;9.32;4.22;;;;;;;30.19;45.31;98203.41;5034049;28;20181;-58
2023/08/18 09:31:24;;;;;;;10.20;4.20;;;;;;;30.43;44.92;98213.00;5034287;28;20248;-58
2023/08/18 09:33:51;;;;;;;8.45;4.05;;;;;;;30.70;44.58;98240.84;5034495;28;20619;-58
2023/08/18 09:36:18;;;;;;;6.90;4.13;;;;;;;30.70;44.81;98235.50;5034284;28;20191;-58
2023/08/18 09:38:44;;;;;;;5.28;3.75;;;;;;;30.84;44.26;98225.38;5034187;28;20174;-58
2023/08/18 09:41:11;;;;;;;7.70;4.30;;;;;;;30.83;44.56;98219.19;5034206;28;20264;-58
2023/08/18 09:43:37;;;;;;;5.82;3.90;;;;;;;30.90;43.75;98205.72;5033135;28;20578;-58
2023/08/18 09:46:06;;;;;;;8.75;3.97;;;;;;;30.88;43.05;98216.63;5033869;28;20212;-58
2023/08/18 09:48:37;;;;;;;8.80;4.35;;;;;;;31.09;43.23;98224.00;5034046;28;20272;-58
2023/08/18 09:51:05;;;;;;;6.82;3.78;;;;;;;31.06;42.28;98218.31;5034031;28;20177;-58
2023/08/18 09:53:32;;;;;;;8.18;4.13;;;;;;;30.93;42.48;98210.56;5033851;28;20257;-57
2023/08/18 09:56:04;;;;;;;4.10;3.75;;;;;;;31.08;42.58;98225.03;5033871;28;20177;-58
2023/08/18 09:58:32;;;;;;;9.98;3.92;;;;;;;31.29;41.91;98228.91;5034001;28;20170;-59
2023/08/18 10:00:58;;;;;;;4.22;3.65;;;;;;;31.26;41.44;98208.81;5033843;28;20181;-58
2023/08/18 10:03:28;;;;;;;3.72;3.38;;;;;;;31.39;41.77;98208.50;5033788;28;20862;-57
2023/08/18 10:05:53;;;;;;;4.57;3.80;;;;;;;31.52;42.29;98234.13;5033698;28;20182;-57
2023/08/18 10:08:21;;;;;;;5.55;3.60;;;;;;;31.49;40.96;98227.38;5033768;28;20283;-57
2023/08/18 10:10:46;;;;;;;7.82;4.20;;;;;;;31.55;40.68;98217.59;5033638;28;20244;-57
2023/08/18 10:13:13;;;;;;;6.78;4.07;;;;;;;31.63;40.01;98223.34;5033600;28;20683;-57
2023/08/18 10:15:40;;;;;;;6.18;4.05;;;;;;;31.46;40.40;98227.88;5050719;28;20311;-57
2023/08/18 10:18:09;;;;;;;9.23;4.40;;;;;;;31.43;40.46;98203.50;5050905;28;20627;-57
2023/08/18 10:20:35;;;;;;;10.48;4.53;;;;;;;31.60;41.08;98226.50;5050841;28;20185;-58
2023/08/18 10:23:02;;;;;;;4.78;3.60;;;;;;;31.67;40.07;98195.06;5050915;28;20185;-58
2023/08/18 10:25:29;;;;;;;5.18;3.72;;;;;;;31.75;40.21;98191.19;5050704;28;20217;-57
2023/08/18 10:27:55;;;;;;;7.28;3.70;;;;;;;32.05;39.24;98221.91;5050788;28;20192;-57
2023/08/18 10:30:20;;;;;;;5.53;3.67;;;;;;;32.02;39.20;98198.31;5050625;28;20181;-57
2023/08/18 10:32:45;;;;;;;5.25;4.28;;;;;;;32.08;39.85;98196.50;5050759;28;20228;-57
2023/08/18 10:35:25;;;;;;;8.05;4.00;;;;;;;32.41;39.33;98207.97;5050460;28;20212;-57
2023/08/18 10:37:51;;;;;;;6.60;3.95;;;;;;;32.59;39.19;98210.31;5050498;28;20714;-57
2023/08/18 10:40:36;;;;;;;5.60;3.65;;;;;;;32.78;38.65;98211.69;5050480;28;20181;-57
2023/08/18 10:43:15;;;;;;;4.95;3.85;;;;;;;32.78;38.31;98208.19;5050664;28;20276;-57
2023/08/18 10:45:41;;;;;;;7.75;3.95;;;;;;;32.71;38.16;98200.28;5048429;28;20181;-57
2023/08/18 10:48:07;;;;;;;7.63;4.45;;;;;;;32.76;38.21;98170.88;5032845;28;20236;-57
2023/08/18 10:50:38;;;;;;;4.95;3.42;;;;;;;32.90;37.32;98190.91;5033086;28;20177;-57
2023/08/18 10:53:04;;;;;;;3.78;3.47;;;;;;;32.96;37.01;98184.53;5032495;28;20177;-57
2023/08/18 10:55:30;;;;;;;4.97;3.70;;;;;;;33.05;36.79;98182.19;5032556;28;20321;-57
2023/08/18 10:57:56;;;;;;;9.38;3.83;;;;;;;33.21;36.74;98174.03;5032961;28;20619;-57
2023/08/18 11:00:22;;;;;;;4.78;3.78;;;;;;;33.56;37.07;98206.56;5032974;28;20213;-57
2023/08/18 11:02:49;;;;;;;4.32;3.53;;;;;;;33.61;36.30;98193.19;5032625;28;20192;-57
2023/08/18 11:05:17;;;;;;;4.35;3.08;;;;;;;33.79;34.48;98192.00;5032490;28;20177;-57
2023/08/18 11:07:43;;;;;;;7.60;3.28;;;;;;;33.80;34.95;98221.28;5032371;28;20550;-57
2023/08/18 11:10:19;;;;;;;5.20;3.28;;;;;;;33.96;34.66;98222.19;5032552;28;20663;-57
2023/08/18 11:12:45;;;;;;;5.53;3.20;;;;;;;33.86;34.13;98212.19;5032537;28;20597;-57
2023/08/18 11:15:12;;;;;;;8.95;3.58;;;;;;;33.75;34.31;98197.03;5032254;28;20247;-58
2023/08/18 11:17:38;;;;;;;4.03;3.08;;;;;;;33.90;34.03;98218.69;5032290;28;20186;-58
2023/08/18 11:20:22;;;;;;;5.78;3.28;;;;;;;33.96;34.11;98206.91;5032323;28;20205;-58
2023/08/18 11:22:51;;;;;;;8.85;3.50;;;;;;;34.03;33.92;98202.09;5032260;28;20186;-58
2023/08/18 11:25:17;;;;;;;3.28;3.00;;;;;;;33.80;33.38;98180.22;5032109;28;20212;-59
2023/08/18 11:27:44;;;;;;;5.22;3.03;;;;;;;33.84;34.16;98192.03;5032161;28;20189;-59
2023/08/18 11:30:12;;;;;;;4.68;3.15;;;;;;;33.86;34.08;98185.34;5032013;28;20185;-59